Time;durP1;ratioP1;P1;durP2;ratioP2;P2;SDS_P1;SDS_P2;PMS_P1;PMS_P2;Temp;Humidity;BMP_temperature;BMP_pressure;BME280_temperature;BME280_humidity;BME280_pressure;Samples;Min_cycle;Max_cycle;Signal;HPM_P1;HPM_P2
2023/04/22 00:00:40;;;;;;;;;;;7.10;99.90;;;;;;8390068;28;19958;-78
2023/04/22 00:04:40;;;;;;;;;;;7.10;99.90;;;;;;8376245;28;19915;-78
2023/04/22 00:08:40;;;;;;;;;;;7.10;99.90;;;;;;8398487;28;19916;-79
2023/04/22 00:12:41;;;;;;;;;;;7.00;99.90;;;;;;8376786;28;19987;-78
2023/04/22 00:16:41;;;;;;;;;;;6.80;99.90;;;;;;8395167;28;19920;-78
2023/04/22 00:20:43;;;;;;;;;;;6.80;99.90;;;;;;8398185;28;19921;-78
2023/04/22 00:24:43;;;;;;;;;;;6.80;99.90;;;;;;8394812;28;20030;-78
2023/04/22 00:28:43;;;;;;;;;;;6.70;99.90;;;;;;8393850;28;20003;-79
2023/04/22 00:32:44;;;;;;;;;;;6.80;99.90;;;;;;8394404;28;19913;-79
2023/04/22 00:36:45;;;;;;;;;;;6.80;99.90;;;;;;8377762;28;19908;-78
2023/04/22 00:40:45;;;;;;;;;;;6.70;99.90;;;;;;8376922;28;19924;-78
2023/04/22 00:44:46;;;;;;;;;;;6.90;99.90;;;;;;8401597;28;19913;-78
2023/04/22 00:48:46;;;;;;;;;;;6.60;99.90;;;;;;8391800;28;20083;-78
2023/04/22 00:52:47;;;;;;;;;;;6.70;99.90;;;;;;8393467;28;19908;-78
2023/04/22 00:56:47;;;;;;;;;;;6.70;99.90;;;;;;8394344;28;19999;-78
2023/04/22 01:00:48;;;;;;;;;;;6.60;99.90;;;;;;8375125;28;19916;-78
2023/04/22 01:04:48;;;;;;;;;;;6.50;99.90;;;;;;8392982;28;19987;-78
2023/04/22 01:08:49;;;;;;;;;;;6.40;99.90;;;;;;8375458;28;19912;-78
2023/04/22 01:12:50;;;;;;;;;;;6.50;99.90;;;;;;8375314;28;19912;-79
2023/04/22 01:16:52;;;;;;;;;;;6.70;99.90;;;;;;8374552;28;19913;-77
2023/04/22 01:20:53;;;;;;;;;;;6.50;99.90;;;;;;8395136;28;20454;-78
2023/04/22 01:24:53;;;;;;;;;;;6.60;99.90;;;;;;8393690;28;19955;-78
2023/04/22 01:28:54;;;;;;;;;;;6.50;99.90;;;;;;8374984;28;19908;-79
2023/04/22 01:32:55;;;;;;;;;;;6.50;99.90;;;;;;8374261;28;19919;-78
2023/04/22 01:36:55;;;;;;;;;;;6.40;99.90;;;;;;8374699;28;19915;-79
2023/04/22 01:40:56;;;;;;;;;;;6.50;99.90;;;;;;8377113;28;19908;-78
2023/04/22 01:44:56;;;;;;;;;;;6.60;99.90;;;;;;8374400;28;19970;-79
2023/04/22 01:48:57;;;;;;;;;;;6.50;99.90;;;;;;8389843;28;19915;-79
2023/04/22 01:52:57;;;;;;;;;;;6.40;99.90;;;;;;8393636;28;19960;-78
2023/04/22 01:56:58;;;;;;;;;;;6.30;99.90;;;;;;8373343;28;19951;-79
2023/04/22 02:00:58;;;;;;;;;;;6.20;99.90;;;;;;8374534;28;20464;-79
2023/04/22 02:04:59;;;;;;;;;;;6.20;99.90;;;;;;8391403;28;19915;-78
2023/04/22 02:08:59;;;;;;;;;;;6.10;99.90;;;;;;8373898;28;20002;-79
2023/04/22 02:12:59;;;;;;;;;;;6.00;99.90;;;;;;8373999;28;20007;-78
2023/04/22 02:17:01;;;;;;;;;;;6.00;99.90;;;;;;8372717;28;19916;-78
2023/04/22 02:21:01;;;;;;;;;;;6.00;99.90;;;;;;8390927;28;19991;-77
2023/04/22 02:25:02;;;;;;;;;;;6.00;99.90;;;;;;8390201;28;19908;-79
2023/04/22 02:29:02;;;;;;;;;;;6.10;99.90;;;;;;8372946;28;19917;-79
2023/04/22 02:33:03;;;;;;;;;;;6.00;99.90;;;;;;8371978;28;19913;-78
2023/04/22 02:37:04;;;;;;;;;;;6.00;99.90;;;;;;8372297;28;19947;-78
2023/04/22 02:41:04;;;;;;;;;;;6.10;99.90;;;;;;8372763;28;19954;-79
2023/04/22 02:45:05;;;;;;;;;;;6.10;99.90;;;;;;8372434;28;19909;-79
2023/04/22 02:49:05;;;;;;;;;;;6.00;99.90;;;;;;8388529;28;19909;-78
2023/04/22 02:53:07;;;;;;;;;;;6.00;99.90;;;;;;8375281;28;19912;-79
2023/04/22 02:57:07;;;;;;;;;;;6.00;99.90;;;;;;8389588;28;20036;-79
2023/04/22 03:01:08;;;;;;;;;;;6.00;99.90;;;;;;8375497;28;20436;-78
2023/04/22 03:05:09;;;;;;;;;;;6.00;99.90;;;;;;8371516;28;19916;-79
2023/04/22 03:09:09;;;;;;;;;;;5.90;99.90;;;;;;8372228;28;20048;-78
2023/04/22 03:13:11;;;;;;;;;;;6.10;99.90;;;;;;8392580;28;19916;-79
2023/04/22 03:17:11;;;;;;;;;;;6.30;99.90;;;;;;8394080;28;20018;-79
2023/04/22 03:21:12;;;;;;;;;;;6.40;99.90;;;;;;8394456;28;19982;-79
2023/04/22 03:25:12;;;;;;;;;;;6.50;99.90;;;;;;8393768;28;19913;-80
2023/04/22 03:29:13;;;;;;;;;;;6.40;99.90;;;;;;8377563;28;19916;-79
2023/04/22 03:33:13;;;;;;;;;;;6.30;99.90;;;;;;8394607;28;19965;-79
2023/04/22 03:37:14;;;;;;;;;;;6.10;99.90;;;;;;8382613;28;19909;-79
2023/04/22 03:41:15;;;;;;;;;;;6.00;99.90;;;;;;8386589;28;19912;-79
2023/04/22 03:45:15;;;;;;;;;;;6.00;99.90;;;;;;8389833;28;19909;-80
2023/04/22 03:49:16;;;;;;;;;;;5.80;99.90;;;;;;8407064;28;20031;-80
2023/04/22 03:53:16;;;;;;;;;;;5.70;99.90;;;;;;8381959;28;19919;-80
2023/04/22 03:57:17;;;;;;;;;;;5.60;99.90;;;;;;8399868;28;20347;-79
2023/04/22 04:01:17;;;;;;;;;;;5.50;99.90;;;;;;8403657;28;19912;-79
2023/04/22 04:05:18;;;;;;;;;;;5.30;99.90;;;;;;8398389;28;19945;-79
2023/04/22 04:09:18;;;;;;;;;;;5.20;99.90;;;;;;8382242;28;19957;-79
2023/04/22 04:13:18;;;;;;;;;;;5.30;99.90;;;;;;8398371;28;19916;-78
2023/04/22 04:17:20;;;;;;;;;;;5.30;99.90;;;;;;8399725;28;19924;-78
2023/04/22 04:21:20;;;;;;;;;;;5.40;99.90;;;;;;8378496;28;20423;-79
2023/04/22 04:25:21;;;;;;;;;;;5.40;99.90;;;;;;8396794;28;19995;-78
2023/04/22 04:29:22;;;;;;;;;;;5.40;99.90;;;;;;8369537;28;19921;-78
2023/04/22 04:33:23;;;;;;;;;;;5.40;99.90;;;;;;8375247;28;19920;-79
2023/04/22 04:37:23;;;;;;;;;;;5.50;99.90;;;;;;8372386;28;20347;-78
2023/04/22 04:41:26;;;;;;;;;;;5.50;99.90;;;;;;8369965;28;19912;-79
2023/04/22 04:45:27;;;;;;;;;;;5.50;99.90;;;;;;8372113;28;20261;-78
2023/04/22 04:49:29;;;;;;;;;;;5.40;99.90;;;;;;8390283;28;20030;-79
2023/04/22 04:53:29;;;;;;;;;;;5.40;99.90;;;;;;8383914;28;19916;-78
2023/04/22 04:57:30;;;;;;;;;;;5.30;99.90;;;;;;8378836;28;19963;-79
2023/04/22 05:01:30;;;;;;;;;;;5.40;99.90;;;;;;8388983;28;19960;-79
2023/04/22 05:05:31;;;;;;;;;;;5.60;99.90;;;;;;8404761;28;19913;-79
2023/04/22 05:09:36;;;;;;;;;;;5.40;99.90;;;;;;8395183;28;19930;-78
2023/04/22 05:13:36;;;;;;;;;;;5.50;99.90;;;;;;8390000;28;20308;-78
2023/04/22 05:17:37;;;;;;;;;;;5.60;99.90;;;;;;8398340;28;19916;-78
2023/04/22 05:21:37;;;;;;;;;;;5.70;99.90;;;;;;8396108;28;20377;-78
2023/04/22 05:25:38;;;;;;;;;;;5.90;99.90;;;;;;8404151;28;19927;-79
2023/04/22 05:29:38;;;;;;;;;;;6.30;99.90;;;;;;8398870;28;19943;-79
2023/04/22 05:33:39;;;;;;;;;;;6.80;99.90;;;;;;8393453;28;20408;-79
2023/04/22 05:37:39;;;;;;;;;;;7.20;99.90;;;;;;8406581;28;19993;-79
2023/04/22 05:41:39;;;;;;;;;;;7.40;99.90;;;;;;8401121;28;20352;-79
2023/04/22 05:45:40;;;;;;;;;;;7.70;99.90;;;;;;8390763;28;20410;-78
2023/04/22 05:49:40;;;;;;;;;;;8.60;99.90;;;;;;8395316;28;20372;-79
2023/04/22 05:53:41;;;;;;;;;;;9.30;99.90;;;;;;8375392;28;20005;-80
2023/04/22 05:57:41;;;;;;;;;;;9.80;99.90;;;;;;8391040;28;19923;-80
2023/04/22 06:01:42;;;;;;;;;;;10.30;99.90;;;;;;8400888;28;19916;-80
2023/04/22 06:05:43;;;;;;;;;;;10.60;99.90;;;;;;8395182;28;19917;-79
2023/04/22 06:09:43;;;;;;;;;;;11.30;99.90;;;;;;8388148;28;19935;-79
2023/04/22 06:13:44;;;;;;;;;;;11.90;99.90;;;;;;8391716;28;20312;-80
2023/04/22 06:17:44;;;;;;;;;;;12.60;99.90;;;;;;8373412;28;20564;-79
2023/04/22 06:21:45;;;;;;;;;;;12.70;99.90;;;;;;8374709;28;19918;-79
2023/04/22 06:25:46;;;;;;;;;;;12.90;99.90;;;;;;8399509;28;20435;-78
2023/04/22 06:29:46;;;;;;;;;;;13.30;99.90;;;;;;8386920;28;19912;-80
2023/04/22 06:33:47;;;;;;;;;;;13.80;99.90;;;;;;8399696;28;19948;-79
2023/04/22 06:37:47;;;;;;;;;;;14.00;99.90;;;;;;8383714;28;19917;-78
2023/04/22 06:41:48;;;;;;;;;;;14.40;99.90;;;;;;8395182;28;19920;-79
2023/04/22 06:45:49;;;;;;;;;;;14.30;99.90;;;;;;8399458;28;20300;-79
2023/04/22 06:49:49;;;;;;;;;;;14.20;99.90;;;;;;8398769;28;20003;-78
2023/04/22 06:53:50;;;;;;;;;;;14.30;99.90;;;;;;8399250;28;20263;-79
2023/04/22 06:57:50;;;;;;;;;;;14.30;99.90;;;;;;8381759;28;20500;-80
2023/04/22 07:01:51;;;;;;;;;;;14.60;99.90;;;;;;8394545;28;19913;-80
2023/04/22 07:05:51;;;;;;;;;;;14.70;99.90;;;;;;8391927;28;20392;-78
2023/04/22 07:09:52;;;;;;;;;;;15.20;99.90;;;;;;8372991;28;19912;-80
2023/04/22 07:13:52;;;;;;;;;;;15.80;99.90;;;;;;8390382;28;19975;-79
2023/04/22 07:17:53;;;;;;;;;;;16.20;99.90;;;;;;8372063;28;19921;-80
2023/04/22 07:21:55;;;;;;;;;;;16.70;99.90;;;;;;8389867;28;21207;-80
2023/04/22 07:25:56;;;;;;;;;;;17.20;99.90;;;;;;8372426;28;19909;-78
2023/04/22 07:29:56;;;;;;;;;;;17.50;99.90;;;;;;8377165;28;19912;-77
2023/04/22 07:33:56;;;;;;;;;;;17.60;99.90;;;;;;8391023;28;19913;-77
2023/04/22 07:37:57;;;;;;;;;;;17.80;99.90;;;;;;8390080;28;19913;-77
2023/04/22 07:41:58;;;;;;;;;;;18.40;99.90;;;;;;8390885;28;20414;-78
2023/04/22 07:45:58;;;;;;;;;;;18.80;99.90;;;;;;8370673;28;19912;-78
2023/04/22 07:49:58;;;;;;;;;;;19.30;99.90;;;;;;8390011;28;19940;-77
2023/04/22 07:53:59;;;;;;;;;;;19.10;99.90;;;;;;8389654;28;20475;-77
2023/04/22 07:58:02;;;;;;;;;;;18.80;99.90;;;;;;8388828;28;19921;-78
2023/04/22 08:02:02;;;;;;;;;;;19.10;99.90;;;;;;8389832;28;20590;-77
2023/04/22 08:06:03;;;;;;;;;;;19.10;99.90;;;;;;8389554;28;19943;-77
2023/04/22 08:10:04;;;;;;;;;;;19.60;99.90;;;;;;8390540;28;19916;-78
2023/04/22 08:14:04;;;;;;;;;;;19.90;99.90;;;;;;8392898;28;20373;-78
2023/04/22 08:18:05;;;;;;;;;;;20.60;99.90;;;;;;8389967;28;19916;-77
2023/04/22 08:22:05;;;;;;;;;;;20.80;99.90;;;;;;8393258;28;19912;-78
2023/04/22 08:26:07;;;;;;;;;;;21.40;99.90;;;;;;8395255;28;19959;-78
2023/04/22 08:30:08;;;;;;;;;;;21.50;99.90;;;;;;8395769;28;19908;-77
2023/04/22 08:34:08;;;;;;;;;;;21.20;99.90;;;;;;8395166;28;19909;-78
2023/04/22 08:38:09;;;;;;;;;;;21.10;99.90;;;;;;8377376;28;19916;-78
2023/04/22 08:42:09;;;;;;;;;;;21.00;99.90;;;;;;8395718;28;20065;-78
2023/04/22 08:46:10;;;;;;;;;;;21.00;99.90;;;;;;8394667;28;19971;-77
2023/04/22 08:50:10;;;;;;;;;;;20.70;99.90;;;;;;8394673;28;19912;-77
2023/04/22 08:54:11;;;;;;;;;;;20.50;99.90;;;;;;8394138;28;19923;-78
2023/04/22 08:58:11;;;;;;;;;;;21.10;99.90;;;;;;8394376;28;19923;-77
2023/04/22 09:02:15;;;;;;;;;;;21.60;98.20;;;;;;8376852;28;20321;-78
2023/04/22 09:06:17;;;;;;;;;;;21.60;97.30;;;;;;8396005;28;20504;-77
2023/04/22 09:10:17;;;;;;;;;;;22.00;95.90;;;;;;8393789;28;19912;-77
2023/04/22 09:14:18;;;;;;;;;;;21.60;94.80;;;;;;8391811;28;20442;-77
2023/04/22 09:18:19;;;;;;;;;;;21.60;95.10;;;;;;8392256;28;20400;-77
2023/04/22 09:22:20;;;;;;;;;;;21.40;92.90;;;;;;8393015;28;19915;-77
2023/04/22 09:26:22;;;;;;;;;;;21.60;95.00;;;;;;8394522;28;19921;-77
2023/04/22 09:30:33;;;;;;;;;;;21.60;98.00;;;;;;8374759;28;20332;-77
2023/04/22 09:34:33;;;;;;;;;;;22.20;96.50;;;;;;8391039;28;19912;-77
2023/04/22 09:38:34;;;;;;;;;;;23.20;91.30;;;;;;8396177;28;19948;-76
2023/04/22 09:42:46;;;;;;;;;;;23.40;92.40;;;;;;8392703;28;19912;-76
2023/04/22 09:46:48;;;;;;;;;;;23.70;90.40;;;;;;8389516;28;19909;-77
2023/04/22 09:50:50;;;;;;;;;;;23.30;90.10;;;;;;8393314;28;19912;-77
2023/04/22 09:54:53;;;;;;;;;;;23.70;85.80;;;;;;8391390;28;19935;-77
2023/04/22 09:58:54;;;;;;;;;;;23.50;91.70;;;;;;8391155;28;19920;-77
2023/04/22 10:02:54;;;;;;;;;;;23.20;93.10;;;;;;8393011;28;19926;-76
2023/04/22 10:06:55;;;;;;;;;;;23.30;95.20;;;;;;8372280;28;19931;-77
2023/04/22 10:10:56;;;;;;;;;;;23.30;94.50;;;;;;8390988;28;19999;-77
2023/04/22 10:14:56;;;;;;;;;;;23.30;91.80;;;;;;8398042;28;19912;-77
2023/04/22 10:18:58;;;;;;;;;;;23.40;92.20;;;;;;8372830;28;19927;-76
2023/04/22 10:22:58;;;;;;;;;;;23.50;90.70;;;;;;8390019;28;19912;-77
2023/04/22 10:27:05;;;;;;;;;;;24.00;94.00;;;;;;8392619;28;20384;-76
2023/04/22 10:31:06;;;;;;;;;;;24.00;93.00;;;;;;8386826;28;19961;-76
2023/04/22 10:35:08;;;;;;;;;;;24.70;81.00;;;;;;8389965;28;19908;-77
2023/04/22 10:39:13;;;;;;;;;;;25.40;79.70;;;;;;8389926;28;19917;-77
2023/04/22 10:43:14;;;;;;;;;;;25.30;74.90;;;;;;8370721;28;19919;-77
2023/04/22 10:47:24;;;;;;;;;;;26.10;79.20;;;;;;8387410;28;19999;-77
2023/04/22 10:51:37;;;;;;;;;;;26.40;78.30;;;;;;8391528;28;19908;-77
2023/04/22 10:55:50;;;;;;;;;;;27.50;67.10;;;;;;8386172;28;19999;-76
2023/04/22 10:59:52;;;;;;;;;;;26.50;73.40;;;;;;8389386;28;20011;-78
2023/04/22 11:03:52;;;;;;;;;;;26.80;66.60;;;;;;8393342;28;19916;-77
2023/04/22 11:07:54;;;;;;;;;;;27.00;74.00;;;;;;8375496;28;20007;-77
2023/04/22 11:12:15;;;;;;;;;;;27.00;67.70;;;;;;8394957;28;19913;-78
2023/04/22 11:16:15;;;;;;;;;;;26.60;64.70;;;;;;8385307;28;19997;-77
2023/04/22 11:20:16;;;;;;;;;;;26.50;62.00;;;;;;8389004;28;19916;-76
2023/04/22 11:24:17;;;;;;;;;;;26.10;58.80;;;;;;8399233;28;20472;-78
2023/04/22 11:28:19;;;;;;;;;;;26.20;63.50;;;;;;8400983;28;19916;-77
2023/04/22 11:32:20;;;;;;;;;;;26.20;59.10;;;;;;8398036;28;19912;-76
2023/04/22 11:36:21;;;;;;;;;;;26.40;62.10;;;;;;8378094;28;19912;-75
2023/04/22 11:40:28;;;;;;;;;;;27.00;64.80;;;;;;8378468;28;19934;-77
2023/04/22 11:44:29;;;;;;;;;;;26.80;66.80;;;;;;8375777;28;19912;-77
2023/04/22 11:48:29;;;;;;;;;;;27.10;60.30;;;;;;8375106;28;19915;-76
2023/04/22 11:52:44;;;;;;;;;;;26.10;66.80;;;;;;8360770;28;20129;-76
2023/04/22 11:56:47;;;;;;;;;;;26.30;63.30;;;;;;8379738;28;20080;-76
2023/04/22 12:00:51;;;;;;;;;;;26.90;61.90;;;;;;8381723;28;19921;-77
2023/04/22 12:04:52;;;;;;;;;;;27.20;60.80;;;;;;8388977;28;19913;-76
2023/04/22 12:08:54;;;;;;;;;;;27.10;58.60;;;;;;8385014;28;19962;-76
2023/04/22 12:12:55;;;;;;;;;;;27.10;62.70;;;;;;8370425;28;19966;-77
2023/04/22 12:16:55;;;;;;;;;;;28.70;61.00;;;;;;8364413;28;19990;-77
2023/04/22 12:21:00;;;;;;;;;;;29.10;57.80;;;;;;8365346;28;19912;-77
2023/04/22 12:25:01;;;;;;;;;;;29.40;63.50;;;;;;8365814;28;20439;-77
2023/04/22 12:29:01;;;;;;;;;;;28.10;65.40;;;;;;8380347;28;19920;-75
2023/04/22 12:33:01;;;;;;;;;;;27.20;61.00;;;;;;8364901;28;19913;-76
2023/04/22 12:37:02;;;;;;;;;;;27.10;61.90;;;;;;8380283;28;19995;-77
2023/04/22 12:41:03;;;;;;;;;;;27.00;64.40;;;;;;8384805;28;19917;-77
2023/04/22 12:45:04;;;;;;;;;;;27.40;59.00;;;;;;8384290;28;19912;-77
2023/04/22 12:49:05;;;;;;;;;;;28.30;58.30;;;;;;8382583;28;19912;-77
2023/04/22 12:53:05;;;;;;;;;;;29.70;55.60;;;;;;8384338;28;19916;-77
2023/04/22 12:57:06;;;;;;;;;;;31.60;52.80;;;;;;8368083;28;19908;-77
2023/04/22 13:01:06;;;;;;;;;;;32.60;53.30;;;;;;8381380;28;20007;-78
2023/04/22 13:05:08;;;;;;;;;;;32.80;52.90;;;;;;8371231;28;20030;-77
2023/04/22 13:09:08;;;;;;;;;;;32.30;51.50;;;;;;8371210;28;20277;-79
2023/04/22 13:13:08;;;;;;;;;;;32.10;51.00;;;;;;8367136;28;19920;-80
2023/04/22 13:17:09;;;;;;;;;;;31.90;48.30;;;;;;8368874;28;20014;-78
2023/04/22 13:21:12;;;;;;;;;;;30.80;51.60;;;;;;8387530;28;20527;-79
2023/04/22 13:25:12;;;;;;;;;;;30.60;48.00;;;;;;8367836;28;20427;-78
2023/04/22 13:29:13;;;;;;;;;;;31.40;51.40;;;;;;8367182;28;19939;-79
2023/04/22 13:33:13;;;;;;;;;;;32.90;45.10;;;;;;8366201;28;19913;-78
2023/04/22 13:37:15;;;;;;;;;;;33.00;48.20;;;;;;8360623;28;19951;-78
2023/04/22 13:41:15;;;;;;;;;;;33.80;47.50;;;;;;8362330;28;20357;-78
2023/04/22 13:45:16;;;;;;;;;;;31.90;45.60;;;;;;8364157;28;19992;-78
2023/04/22 13:49:16;;;;;;;;;;;29.70;48.80;;;;;;8371772;28;20135;-78
2023/04/22 13:53:17;;;;;;;;;;;29.10;52.50;;;;;;8376721;28;19995;-78
2023/04/22 13:57:17;;;;;;;;;;;28.90;50.10;;;;;;8386115;28;19959;-78
2023/04/22 14:01:18;;;;;;;;;;;30.20;49.30;;;;;;8371206;28;19928;-78
2023/04/22 14:05:18;;;;;;;;;;;31.50;47.00;;;;;;8372193;28;19938;-78
2023/04/22 14:09:19;;;;;;;;;;;33.20;43.20;;;;;;8385277;28;19916;-79
2023/04/22 14:13:20;;;;;;;;;;;33.80;42.80;;;;;;8367327;28;19908;-78
2023/04/22 14:17:21;;;;;;;;;;;31.90;46.30;;;;;;8363995;28;19940;-78
2023/04/22 14:21:22;;;;;;;;;;;29.60;46.10;;;;;;8364423;28;19951;-78
2023/04/22 14:25:22;;;;;;;;;;;28.30;50.90;;;;;;8363598;28;19908;-79
2023/04/22 14:29:23;;;;;;;;;;;27.00;49.60;;;;;;8383507;28;19920;-78
2023/04/22 14:33:23;;;;;;;;;;;26.40;55.40;;;;;;8358997;28;19942;-78
2023/04/22 14:37:24;;;;;;;;;;;26.30;52.20;;;;;;8378975;28;19995;-79
2023/04/22 14:41:25;;;;;;;;;;;25.90;57.50;;;;;;8363580;28;19994;-78
2023/04/22 14:45:27;;;;;;;;;;;25.30;60.10;;;;;;8361027;28;19913;-77
2023/04/22 14:49:28;;;;;;;;;;;24.60;54.00;;;;;;8360508;28;19916;-78
2023/04/22 14:53:28;;;;;;;;;;;24.30;54.90;;;;;;8374811;28;20450;-77
2023/04/22 14:57:29;;;;;;;;;;;24.80;59.00;;;;;;8384070;28;19960;-78
2023/04/22 15:01:30;;;;;;;;;;;24.90;61.00;;;;;;8373366;28;20557;-78
2023/04/22 15:05:30;;;;;;;;;;;24.80;55.40;;;;;;8381056;28;20384;-78
2023/04/22 15:09:31;;;;;;;;;;;24.50;57.80;;;;;;8368451;28;19970;-78
2023/04/22 15:13:35;;;;;;;;;;;24.30;56.60;;;;;;8366698;28;19913;-78
2023/04/22 15:17:35;;;;;;;;;;;24.60;56.50;;;;;;8385870;28;19916;-78
2023/04/22 15:21:36;;;;;;;;;;;26.70;56.30;;;;;;8364294;28;19963;-77
2023/04/22 15:25:36;;;;;;;;;;;27.30;56.40;;;;;;8379270;28;19908;-76
2023/04/22 15:29:37;;;;;;;;;;;27.20;54.90;;;;;;8375791;28;20036;-76
2023/04/22 15:33:38;;;;;;;;;;;26.00;52.70;;;;;;8383324;28;20000;-77
2023/04/22 15:37:38;;;;;;;;;;;24.90;58.10;;;;;;8375263;28;19921;-77
2023/04/22 15:41:40;;;;;;;;;;;24.10;63.20;;;;;;8375922;28;19909;-76
2023/04/22 15:45:41;;;;;;;;;;;23.80;61.00;;;;;;8380961;28;19928;-76
2023/04/22 15:49:41;;;;;;;;;;;23.10;64.00;;;;;;8353333;28;19917;-77
2023/04/22 15:53:44;;;;;;;;;;;22.90;66.20;;;;;;8383444;28;20014;-77
2023/04/22 15:57:44;;;;;;;;;;;22.70;62.20;;;;;;8377687;28;20003;-76
2023/04/22 16:01:45;;;;;;;;;;;22.50;69.30;;;;;;8379482;28;19912;-76
2023/04/22 16:05:45;;;;;;;;;;;22.10;73.10;;;;;;8375173;28;19920;-75
2023/04/22 16:09:46;;;;;;;;;;;21.70;69.40;;;;;;8370377;28;19917;-77
2023/04/22 16:13:47;;;;;;;;;;;21.40;71.60;;;;;;8387726;28;19951;-77
2023/04/22 16:17:47;;;;;;;;;;;21.30;77.20;;;;;;8386558;28;19916;-76
2023/04/22 16:21:47;;;;;;;;;;;21.20;76.90;;;;;;8388329;28;19909;-76
2023/04/22 16:25:49;;;;;;;;;;;20.90;80.60;;;;;;8369963;28;19999;-76
2023/04/22 16:29:49;;;;;;;;;;;21.00;81.00;;;;;;8385201;28;19920;-77
2023/04/22 16:33:50;;;;;;;;;;;21.10;78.60;;;;;;8365951;28;19916;-76
2023/04/22 16:37:50;;;;;;;;;;;20.50;81.20;;;;;;8372457;28;19960;-76
2023/04/22 16:41:52;;;;;;;;;;;20.10;80.40;;;;;;8395931;28;20702;-77
2023/04/22 16:45:52;;;;;;;;;;;19.80;81.50;;;;;;8392530;28;19948;-78
2023/04/22 16:49:53;;;;;;;;;;;19.60;83.70;;;;;;8380202;28;20343;-77
2023/04/22 16:53:53;;;;;;;;;;;20.00;82.60;;;;;;8394781;28;20128;-78
2023/04/22 16:57:53;;;;;;;;;;;19.40;83.50;;;;;;8376307;28;19912;-77
2023/04/22 17:01:54;;;;;;;;;;;18.80;83.00;;;;;;8394103;28;19920;-77
2023/04/22 17:05:54;;;;;;;;;;;18.50;82.60;;;;;;8393532;28;20399;-77
2023/04/22 17:09:55;;;;;;;;;;;18.50;85.90;;;;;;8376724;28;20407;-77
2023/04/22 17:13:55;;;;;;;;;;;18.40;83.80;;;;;;8395329;28;19919;-78
2023/04/22 17:17:56;;;;;;;;;;;18.10;82.70;;;;;;8376583;28;20001;-78
2023/04/22 17:21:57;;;;;;;;;;;18.10;84.90;;;;;;8376540;28;19924;-76
2023/04/22 17:25:58;;;;;;;;;;;17.90;88.90;;;;;;8393152;28;20000;-78
2023/04/22 17:29:58;;;;;;;;;;;17.50;91.70;;;;;;8376092;28;20440;-79
2023/04/22 17:33:59;;;;;;;;;;;17.10;93.10;;;;;;8393170;28;19915;-79
2023/04/22 17:37:59;;;;;;;;;;;16.90;93.00;;;;;;8392976;28;19908;-78
2023/04/22 17:42:00;;;;;;;;;;;16.70;94.40;;;;;;8379685;28;20008;-79
2023/04/22 17:46:00;;;;;;;;;;;16.80;94.00;;;;;;8397933;28;20392;-80
2023/04/22 17:50:01;;;;;;;;;;;16.70;94.60;;;;;;8374246;28;20343;-80
2023/04/22 17:54:04;;;;;;;;;;;16.70;94.90;;;;;;8397878;28;19912;-78
2023/04/22 17:58:04;;;;;;;;;;;16.70;96.60;;;;;;8393704;28;19939;-79
2023/04/22 18:02:05;;;;;;;;;;;16.60;96.90;;;;;;8391813;28;19952;-76
2023/04/22 18:06:05;;;;;;;;;;;16.30;98.40;;;;;;8374134;28;19913;-79
2023/04/22 18:10:06;;;;;;;;;;;16.10;99.90;;;;;;8391418;28;20398;-76
2023/04/22 18:14:07;;;;;;;;;;;15.90;99.90;;;;;;8391096;28;19913;-75
2023/04/22 18:18:07;;;;;;;;;;;15.90;99.90;;;;;;8372716;28;19916;-76
2023/04/22 18:22:07;;;;;;;;;;;15.80;99.90;;;;;;8391198;28;19928;-76
2023/04/22 18:26:10;;;;;;;;;;;15.70;99.90;;;;;;8372517;28;19913;-76
2023/04/22 18:30:10;;;;;;;;;;;15.60;99.90;;;;;;8391082;28;20015;-80
2023/04/22 18:34:12;;;;;;;;;;;15.50;99.90;;;;;;8395075;28;19913;-78
2023/04/22 18:38:12;;;;;;;;;;;15.60;99.90;;;;;;8389229;28;20313;-79
2023/04/22 18:42:13;;;;;;;;;;;15.60;99.90;;;;;;8378657;28;19912;-80
2023/04/22 18:46:13;;;;;;;;;;;15.80;99.90;;;;;;8396067;28;20352;-79
2023/04/22 18:50:14;;;;;;;;;;;15.10;99.90;;;;;;8372839;28;20289;-78
2023/04/22 18:54:14;;;;;;;;;;;15.10;99.90;;;;;;8368616;28;19920;-79
2023/04/22 18:58:15;;;;;;;;;;;14.60;99.90;;;;;;8368718;28;20296;-80
2023/04/22 19:02:15;;;;;;;;;;;14.50;99.90;;;;;;8387598;28;19912;-79
2023/04/22 19:06:16;;;;;;;;;;;14.30;99.90;;;;;;8397562;28;19913;-79
2023/04/22 19:10:16;;;;;;;;;;;14.80;99.90;;;;;;8399262;28;19951;-80
2023/04/22 19:14:17;;;;;;;;;;;14.50;99.90;;;;;;8369683;28;20324;-79
2023/04/22 19:18:17;;;;;;;;;;;14.50;99.90;;;;;;8388264;28;20674;-79
2023/04/22 19:22:18;;;;;;;;;;;14.80;99.90;;;;;;8380946;28;20561;-79
2023/04/22 19:26:19;;;;;;;;;;;14.60;99.90;;;;;;8400082;28;20292;-79
2023/04/22 19:30:21;;;;;;;;;;;14.40;99.90;;;;;;8392523;28;19957;-78
2023/04/22 19:34:22;;;;;;;;;;;14.90;99.90;;;;;;8368086;28;19964;-79
2023/04/22 19:38:23;;;;;;;;;;;14.90;99.90;;;;;;8384613;28;19924;-78
2023/04/22 19:42:23;;;;;;;;;;;14.80;99.90;;;;;;8373368;28;19912;-78
2023/04/22 19:46:24;;;;;;;;;;;14.50;99.90;;;;;;8366655;28;19991;-80
2023/04/22 19:50:24;;;;;;;;;;;14.10;99.90;;;;;;8370816;28;20414;-79
2023/04/22 19:54:26;;;;;;;;;;;14.00;99.90;;;;;;8374177;28;19917;-79
2023/04/22 19:58:27;;;;;;;;;;;14.00;99.90;;;;;;8381798;28;20003;-79
2023/04/22 20:02:27;;;;;;;;;;;13.60;99.90;;;;;;8388479;28;20534;-79
2023/04/22 20:06:28;;;;;;;;;;;14.10;99.90;;;;;;8395500;28;19916;-79
2023/04/22 20:10:29;;;;;;;;;;;13.90;99.90;;;;;;8399839;28;19924;-79
2023/04/22 20:14:31;;;;;;;;;;;13.90;99.90;;;;;;8383027;28;19912;-78
2023/04/22 20:18:31;;;;;;;;;;;13.60;99.90;;;;;;8404936;28;19928;-79
2023/04/22 20:22:32;;;;;;;;;;;13.60;99.90;;;;;;8402701;28;19947;-79
2023/04/22 20:26:32;;;;;;;;;;;13.40;99.90;;;;;;8387830;28;19919;-79
2023/04/22 20:30:33;;;;;;;;;;;13.30;99.90;;;;;;8392008;28;19924;-79
2023/04/22 20:34:34;;;;;;;;;;;13.20;99.90;;;;;;8373780;28;19919;-78
2023/04/22 20:38:38;;;;;;;;;;;13.40;99.90;;;;;;8375137;28;19944;-79
2023/04/22 20:42:38;;;;;;;;;;;13.50;99.90;;;;;;8397978;28;19965;-79
2023/04/22 20:46:39;;;;;;;;;;;13.60;99.90;;;;;;8376286;28;19912;-79
2023/04/22 20:50:39;;;;;;;;;;;13.60;99.90;;;;;;8371699;28;19913;-78
2023/04/22 20:54:40;;;;;;;;;;;13.50;99.90;;;;;;8374054;28;20118;-78
2023/04/22 20:58:40;;;;;;;;;;;13.30;99.90;;;;;;8394252;28;19920;-78
2023/04/22 21:02:42;;;;;;;;;;;13.20;99.90;;;;;;8377737;28;19909;-78
2023/04/22 21:06:44;;;;;;;;;;;12.90;99.90;;;;;;8392932;28;19952;-78
2023/04/22 21:10:44;;;;;;;;;;;13.00;99.90;;;;;;8395355;28;19916;-78
2023/04/22 21:14:45;;;;;;;;;;;12.70;99.90;;;;;;8393059;28;20499;-78
2023/04/22 21:18:46;;;;;;;;;;;12.70;99.90;;;;;;8392964;28;20007;-79
2023/04/22 21:22:46;;;;;;;;;;;12.70;99.90;;;;;;8396061;28;19913;-78
2023/04/22 21:26:47;;;;;;;;;;;12.50;99.90;;;;;;8396345;28;20003;-78
2023/04/22 21:30:48;;;;;;;;;;;12.60;99.90;;;;;;8396270;28;20300;-78
2023/04/22 21:34:49;;;;;;;;;;;13.00;99.90;;;;;;8392076;28;19917;-79
2023/04/22 21:38:49;;;;;;;;;;;12.80;99.90;;;;;;8400683;28;19916;-77
2023/04/22 21:42:50;;;;;;;;;;;12.60;99.90;;;;;;8394644;28;20464;-77
2023/04/22 21:46:50;;;;;;;;;;;12.60;99.90;;;;;;8379411;28;19982;-77
2023/04/22 21:50:51;;;;;;;;;;;12.50;99.90;;;;;;8396722;28;19999;-78
2023/04/22 21:54:51;;;;;;;;;;;12.50;99.90;;;;;;8380563;28;19912;-78
2023/04/22 21:58:52;;;;;;;;;;;12.50;99.90;;;;;;8394501;28;19913;-78
2023/04/22 22:02:52;;;;;;;;;;;12.30;99.90;;;;;;8391267;28;19909;-78
2023/04/22 22:06:53;;;;;;;;;;;12.10;99.90;;;;;;8391956;28;19912;-77
2023/04/22 22:10:54;;;;;;;;;;;12.00;99.90;;;;;;8391058;28;19919;-77
2023/04/22 22:14:54;;;;;;;;;;;12.00;99.90;;;;;;8390423;28;19918;-77
2023/04/22 22:18:56;;;;;;;;;;;12.10;99.90;;;;;;8375560;28;19917;-77
2023/04/22 22:22:57;;;;;;;;;;;12.10;99.90;;;;;;8391589;28;20241;-78
2023/04/22 22:26:57;;;;;;;;;;;12.00;99.90;;;;;;8390532;28;19909;-77
2023/04/22 22:31:01;;;;;;;;;;;12.00;99.90;;;;;;8395841;28;19931;-77
2023/04/22 22:35:02;;;;;;;;;;;12.10;99.90;;;;;;8396161;28;20556;-77
2023/04/22 22:39:03;;;;;;;;;;;12.30;99.90;;;;;;8386895;28;19917;-77
2023/04/22 22:43:03;;;;;;;;;;;12.20;99.90;;;;;;8391345;28;19994;-78
2023/04/22 22:47:04;;;;;;;;;;;12.00;99.90;;;;;;8396686;28;19923;-77
2023/04/22 22:51:05;;;;;;;;;;;11.90;99.90;;;;;;8377886;28;19934;-77
2023/04/22 22:55:06;;;;;;;;;;;11.90;99.90;;;;;;8395525;28;19921;-76
2023/04/22 22:59:06;;;;;;;;;;;12.00;99.90;;;;;;8374726;28;19913;-77
2023/04/22 23:03:07;;;;;;;;;;;11.90;99.90;;;;;;8394403;28;20457;-78
2023/04/22 23:07:07;;;;;;;;;;;11.70;99.90;;;;;;8373287;28;20434;-78
2023/04/22 23:11:08;;;;;;;;;;;11.50;99.90;;;;;;8395633;28;19917;-77
2023/04/22 23:15:09;;;;;;;;;;;11.50;99.90;;;;;;8395847;28;20000;-77
2023/04/22 23:19:10;;;;;;;;;;;11.40;99.90;;;;;;8393157;28;19920;-77
2023/04/22 23:23:12;;;;;;;;;;;11.30;99.90;;;;;;8390975;28;19913;-78
2023/04/22 23:27:13;;;;;;;;;;;11.30;99.90;;;;;;8390435;28;20011;-78